createdAt,value
2023-01-23T00:01:42.905Z,101708.56
2023-01-23T00:04:13.631Z,101705.09
2023-01-23T00:06:43.947Z,101715.00
2023-01-23T00:09:12.675Z,101706.91
2023-01-23T00:11:41.237Z,101710.41
2023-01-23T00:14:12.204Z,101706.25
2023-01-23T00:16:40.853Z,101721.84
2023-01-23T00:19:11.135Z,101719.72
2023-01-23T00:21:39.758Z,101714.59
2023-01-23T00:24:13.963Z,101715.75
2023-01-23T00:26:42.660Z,101720.13
2023-01-23T00:29:10.898Z,101715.44
2023-01-23T00:31:40.867Z,101719.53
2023-01-23T00:34:14.945Z,101717.81
2023-01-23T00:36:45.113Z,101721.16
2023-01-23T00:39:19.809Z,101730.44
2023-01-23T00:41:49.683Z,101728.09
2023-01-23T00:44:19.313Z,101724.19
2023-01-23T00:46:47.788Z,101731.03
2023-01-23T00:49:17.969Z,101720.19
2023-01-23T00:51:46.763Z,101719.81
2023-01-23T00:54:16.908Z,101717.28
2023-01-23T00:56:45.482Z,101720.38
2023-01-23T00:59:13.967Z,101719.72
2023-01-23T01:01:42.950Z,101722.47
2023-01-23T01:04:12.452Z,101719.63
2023-01-23T01:06:41.141Z,101726.03
2023-01-23T01:09:09.724Z,101716.59
2023-01-23T01:11:40.907Z,101722.19
2023-01-23T01:14:09.624Z,101720.00
2023-01-23T01:16:38.515Z,101723.16
2023-01-23T01:19:07.096Z,101723.03
2023-01-23T01:21:36.000Z,101724.75
2023-01-23T01:24:04.768Z,101723.25
2023-01-23T01:26:33.166Z,101726.22
2023-01-23T01:29:03.139Z,101729.16
2023-01-23T01:31:31.557Z,101729.63
2023-01-23T01:34:00.237Z,101736.84
2023-01-23T01:36:28.579Z,101742.97
2023-01-23T01:38:57.481Z,101744.06
2023-01-23T01:41:26.764Z,101746.53
2023-01-23T01:43:57.076Z,101741.53
2023-01-23T01:46:28.879Z,101753.31
2023-01-23T01:49:10.419Z,101734.00
2023-01-23T01:51:45.570Z,101732.28
2023-01-23T01:54:22.814Z,101737.09
2023-01-23T01:56:58.625Z,101739.84
2023-01-23T01:59:32.120Z,101740.25
2023-01-23T02:02:09.738Z,101739.88
2023-01-23T02:04:43.906Z,101735.28
2023-01-23T02:07:20.111Z,101734.16
2023-01-23T02:09:52.186Z,101733.41
2023-01-23T02:12:20.831Z,101726.88
2023-01-23T02:14:49.147Z,101733.41
2023-01-23T02:17:19.654Z,101724.56
2023-01-23T02:20:00.619Z,101738.63
2023-01-23T02:22:41.772Z,101744.31
2023-01-23T02:25:19.000Z,101737.34
2023-01-23T02:27:49.142Z,101734.31
2023-01-23T02:30:19.625Z,101735.81
2023-01-23T02:32:49.142Z,101734.00
2023-01-23T02:35:26.313Z,101738.63
2023-01-23T02:38:03.038Z,101743.63
2023-01-23T02:40:34.218Z,101738.03
2023-01-23T02:43:05.900Z,101740.88
2023-01-23T02:45:36.084Z,101739.53
2023-01-23T02:48:06.276Z,101738.72
2023-01-23T02:50:34.933Z,101743.38
2023-01-23T02:53:03.568Z,101740.06
2023-01-23T02:55:33.160Z,101737.47
2023-01-23T02:58:17.825Z,101747.78
2023-01-23T03:00:46.871Z,101745.13
2023-01-23T03:03:15.950Z,101746.13
2023-01-23T03:05:44.423Z,101744.38
2023-01-23T03:08:13.066Z,101739.78
2023-01-23T03:10:41.353Z,101744.91
2023-01-23T03:13:12.092Z,101742.47
2023-01-23T03:15:42.106Z,101745.00
2023-01-23T03:18:10.687Z,101748.25
2023-01-23T03:20:43.186Z,101737.69
2023-01-23T03:23:12.871Z,101738.38
2023-01-23T03:25:44.913Z,101740.59
2023-01-23T03:28:28.879Z,101745.44
2023-01-23T03:30:57.550Z,101735.97
2023-01-23T03:33:26.354Z,101737.09
2023-01-23T03:35:54.759Z,101737.34
2023-01-23T03:38:23.782Z,101729.47
2023-01-23T03:41:09.800Z,101732.03
2023-01-23T03:43:39.875Z,101737.84
2023-01-23T03:46:08.378Z,101738.38
2023-01-23T03:48:37.570Z,101740.22
2023-01-23T03:51:06.518Z,101746.19
2023-01-23T03:53:35.483Z,101742.31
2023-01-23T03:56:04.523Z,101738.63
2023-01-23T03:58:33.095Z,101733.06
2023-01-23T04:01:06.249Z,101745.78
2023-01-23T04:03:37.724Z,101744.94
2023-01-23T04:06:07.115Z,101734.13
2023-01-23T04:08:35.838Z,101742.84
2023-01-23T04:11:07.135Z,101761.03
2023-01-23T04:13:35.338Z,101756.56
2023-01-23T04:16:07.524Z,101762.59
2023-01-23T04:18:36.809Z,101767.91
2023-01-23T04:21:05.758Z,101754.78
2023-01-23T04:23:35.577Z,101757.09
2023-01-23T04:26:05.020Z,101753.63
2023-01-23T04:28:34.412Z,101751.16
2023-01-23T04:31:05.003Z,101758.81
2023-01-23T04:33:35.837Z,101751.50
2023-01-23T04:36:08.270Z,101755.03
2023-01-23T04:38:37.302Z,101752.41
2023-01-23T04:41:23.830Z,101749.97
2023-01-23T04:44:19.807Z,101750.59
2023-01-23T04:47:10.415Z,101744.91
2023-01-23T04:49:38.949Z,101740.69
2023-01-23T04:52:07.565Z,101734.03
2023-01-23T04:54:39.760Z,101743.72
2023-01-23T04:57:08.482Z,101742.78
2023-01-23T04:59:37.169Z,101734.88
2023-01-23T05:02:05.719Z,101728.00
2023-01-23T05:04:41.795Z,101729.38
2023-01-23T05:07:12.205Z,101732.91
2023-01-23T05:09:44.990Z,101736.78
2023-01-23T05:12:16.479Z,101742.50
2023-01-23T05:14:45.023Z,101740.63
2023-01-23T05:17:13.575Z,101736.09
2023-01-23T05:19:48.715Z,101740.00
2023-01-23T05:22:18.015Z,101738.91
2023-01-23T05:24:47.258Z,101752.03
2023-01-23T05:27:15.855Z,101749.56
2023-01-23T05:29:46.588Z,101761.47
2023-01-23T05:32:25.083Z,101762.06
2023-01-23T05:35:10.992Z,101764.22
2023-01-23T05:37:40.977Z,101768.91
2023-01-23T05:40:14.308Z,101763.50
2023-01-23T05:43:02.593Z,101767.97
2023-01-23T05:45:37.425Z,101766.66
2023-01-23T05:48:12.533Z,101777.25
2023-01-23T05:50:42.849Z,101768.38
2023-01-23T05:53:11.490Z,101760.16
2023-01-23T05:55:40.148Z,101759.31
2023-01-23T05:58:10.324Z,101770.22
2023-01-23T06:00:57.233Z,101778.69
2023-01-23T06:03:44.763Z,101776.06
2023-01-23T06:06:33.575Z,101773.28
2023-01-23T06:09:02.328Z,101774.50
2023-01-23T06:11:31.731Z,101781.09
2023-01-23T06:14:00.388Z,101775.03
2023-01-23T06:16:28.982Z,101779.31
2023-01-23T06:18:58.438Z,101779.38
2023-01-23T06:21:29.635Z,101777.69
2023-01-23T06:24:00.346Z,101792.66
2023-01-23T06:26:29.817Z,101801.00
2023-01-23T06:28:59.010Z,101791.91
2023-01-23T06:31:27.581Z,101808.72
2023-01-23T06:34:00.571Z,101809.44
2023-01-23T06:36:40.171Z,101807.59
2023-01-23T06:39:13.438Z,101814.22
2023-01-23T06:41:43.900Z,101815.22
2023-01-23T06:44:18.401Z,101815.13
2023-01-23T06:46:47.084Z,101827.19
2023-01-23T06:49:15.514Z,101827.50
2023-01-23T06:51:44.167Z,101831.75
2023-01-23T06:54:15.822Z,101850.66
2023-01-23T06:56:45.416Z,101845.34
2023-01-23T06:59:14.272Z,101853.06
2023-01-23T07:01:43.854Z,101854.31
2023-01-23T07:04:35.728Z,101868.34
2023-01-23T07:07:04.797Z,101860.59
2023-01-23T07:09:36.071Z,101864.97
2023-01-23T07:12:22.075Z,101868.16
2023-01-23T07:14:51.366Z,101859.44
2023-01-23T07:17:36.174Z,101861.31
2023-01-23T07:20:05.289Z,101867.78
2023-01-23T07:22:35.239Z,101872.50
2023-01-23T07:25:06.368Z,101875.75
2023-01-23T07:27:34.948Z,101879.00
2023-01-23T07:30:03.809Z,101874.00
2023-01-23T07:32:32.434Z,101879.56
2023-01-23T07:35:00.877Z,101885.63
2023-01-23T07:37:29.145Z,101883.53
2023-01-23T07:39:57.509Z,101881.41
2023-01-23T07:42:27.414Z,101889.28
2023-01-23T07:44:55.844Z,101884.19
2023-01-23T07:47:24.678Z,101890.78
2023-01-23T07:49:53.287Z,101889.13
2023-01-23T07:52:21.540Z,101898.78
2023-01-23T07:54:49.966Z,101898.09
2023-01-23T07:57:18.248Z,101900.34
2023-01-23T07:59:49.290Z,101904.63
2023-01-23T08:02:17.679Z,101912.03
2023-01-23T08:04:46.431Z,101906.69
2023-01-23T08:07:15.133Z,101902.44
2023-01-23T08:09:43.806Z,101895.59
2023-01-23T08:12:13.533Z,101896.19
2023-01-23T08:14:42.017Z,101903.44
2023-01-23T08:17:11.644Z,101897.66
2023-01-23T08:19:40.180Z,101909.47
2023-01-23T08:22:08.978Z,101898.38
2023-01-23T08:24:37.549Z,101897.75
2023-01-23T08:27:06.118Z,101892.00
2023-01-23T08:29:34.665Z,101891.06
2023-01-23T08:32:03.547Z,101894.25
2023-01-23T08:34:33.570Z,101885.75
2023-01-23T08:37:02.003Z,101888.44
2023-01-23T08:39:30.386Z,101886.09
2023-01-23T08:41:58.912Z,101878.81
2023-01-23T08:44:27.601Z,101886.63
2023-01-23T08:46:55.891Z,101885.22
2023-01-23T08:49:24.902Z,101887.75
2023-01-23T08:51:54.831Z,101890.03
2023-01-23T08:54:23.210Z,101892.53
2023-01-23T08:56:51.603Z,101903.53
2023-01-23T08:59:19.865Z,101899.16
2023-01-23T09:01:48.413Z,101901.97
2023-01-23T09:04:17.525Z,101906.69
2023-01-23T09:06:46.248Z,101902.25
2023-01-23T09:09:16.212Z,101903.72
2023-01-23T09:11:46.647Z,101908.88
2023-01-23T09:14:16.939Z,101907.38
2023-01-23T09:16:45.320Z,101904.63
2023-01-23T09:19:13.819Z,101905.50
2023-01-23T09:21:42.587Z,101907.88
2023-01-23T09:24:11.481Z,101905.78
2023-01-23T09:26:41.671Z,101911.69
2023-01-23T09:29:09.960Z,101915.72
2023-01-23T09:31:38.640Z,101912.59
2023-01-23T09:34:07.917Z,101911.03
2023-01-23T09:36:42.868Z,101919.88
2023-01-23T09:39:12.326Z,101917.75
2023-01-23T09:41:44.975Z,101925.66
2023-01-23T09:44:17.855Z,101924.63
2023-01-23T09:46:51.547Z,101932.53
2023-01-23T09:49:26.813Z,101928.50
2023-01-23T09:52:00.883Z,101924.22
2023-01-23T09:54:43.330Z,101924.69
2023-01-23T09:57:22.501Z,101921.75
2023-01-23T10:00:00.473Z,101924.53
2023-01-23T10:02:30.066Z,101924.31
2023-01-23T10:04:59.659Z,101927.22
2023-01-23T10:07:46.509Z,101928.81
2023-01-23T10:10:52.754Z,101924.84
2023-01-23T10:13:36.790Z,101918.16
2023-01-23T10:16:35.380Z,101910.47
2023-01-23T10:19:29.332Z,101920.97
2023-01-23T10:22:05.438Z,101925.31
2023-01-23T10:24:46.584Z,101925.66
2023-01-23T10:27:32.423Z,101927.16
2023-01-23T10:30:06.751Z,101925.75
2023-01-23T10:32:47.769Z,101924.28
2023-01-23T10:35:21.467Z,101935.22
2023-01-23T10:37:56.272Z,101932.75
2023-01-23T10:40:40.023Z,101932.47
2023-01-23T10:43:15.784Z,101935.25
2023-01-23T10:45:47.454Z,101932.59
2023-01-23T10:48:48.764Z,101937.16
2023-01-23T10:51:47.709Z,101937.84
2023-01-23T10:54:31.771Z,101939.91
2023-01-23T10:57:19.995Z,101935.34
2023-01-23T10:59:57.202Z,101931.94
2023-01-23T11:02:32.725Z,101932.19
2023-01-23T11:05:03.093Z,101930.38
2023-01-23T11:07:33.509Z,101941.41
2023-01-23T11:10:17.050Z,101940.25
2023-01-23T11:12:50.072Z,101936.56
2023-01-23T11:15:24.504Z,101931.03
2023-01-23T11:17:56.842Z,101940.94
2023-01-23T11:20:29.852Z,101932.22
2023-01-23T11:23:08.420Z,101933.03
2023-01-23T11:25:40.415Z,101928.84
2023-01-23T11:28:23.707Z,101924.81
2023-01-23T11:31:13.868Z,101922.00
2023-01-23T11:33:56.395Z,101908.22
2023-01-23T11:36:52.958Z,101906.09
2023-01-23T11:39:38.960Z,101901.56
2023-01-23T11:42:11.183Z,101890.44
2023-01-23T11:44:46.496Z,101893.09
2023-01-23T11:47:50.733Z,101889.59
2023-01-23T11:50:49.996Z,101892.09
2023-01-23T11:53:42.295Z,101886.91
2023-01-23T11:56:43.867Z,101884.78
2023-01-23T11:59:56.819Z,101885.06
2023-01-23T12:02:58.039Z,101877.66
2023-01-23T12:05:52.324Z,101880.59
2023-01-23T12:08:32.738Z,101882.31
2023-01-23T12:11:14.151Z,101879.91
2023-01-23T12:13:59.857Z,101884.97
2023-01-23T12:16:50.779Z,101894.19
2023-01-23T12:19:34.149Z,101887.69
2023-01-23T12:22:16.960Z,101885.56
2023-01-23T12:25:04.119Z,101894.31
2023-01-23T12:27:43.982Z,101893.50
2023-01-23T12:30:44.260Z,101892.84
2023-01-23T12:33:40.380Z,101895.72
2023-01-23T12:36:30.135Z,101896.03
2023-01-23T12:39:10.703Z,101887.69
2023-01-23T12:41:44.009Z,101889.25
2023-01-23T12:44:18.277Z,101895.13
2023-01-23T12:46:57.221Z,101887.91
2023-01-23T12:49:30.273Z,101886.00
2023-01-23T12:52:04.553Z,101885.56
2023-01-23T12:54:43.350Z,101894.13
2023-01-23T12:57:14.129Z,101890.94
2023-01-23T13:00:02.250Z,101891.34
2023-01-23T13:02:41.605Z,101885.69
2023-01-23T13:05:20.954Z,101891.81
2023-01-23T13:08:01.602Z,101894.41
2023-01-23T13:11:17.645Z,101885.31
2023-01-23T13:13:48.003Z,101885.34
2023-01-23T13:16:20.213Z,101888.97
2023-01-23T13:19:13.729Z,101883.91
2023-01-23T13:22:03.020Z,101874.09
2023-01-23T13:25:03.829Z,101882.03
2023-01-23T13:27:47.367Z,101883.19
2023-01-23T13:30:41.165Z,101887.81
2023-01-23T13:33:55.269Z,101888.66
2023-01-23T13:36:39.582Z,101892.06
2023-01-23T13:39:29.038Z,101899.53
2023-01-23T13:42:36.613Z,101898.16
2023-01-23T13:45:35.837Z,101901.53
2023-01-23T14:20:39.525Z,101901.38
2023-01-23T14:23:21.866Z,101909.75
2023-01-23T14:25:50.467Z,101913.44
2023-01-23T14:28:20.231Z,101908.09
2023-01-23T14:31:00.719Z,101902.97
2023-01-23T14:33:40.063Z,101907.53
2023-01-23T14:36:17.369Z,101910.91
2023-01-23T14:38:47.870Z,101913.25
2023-01-23T14:41:19.113Z,101907.38
2023-01-23T14:43:48.079Z,101913.28
2023-01-23T14:46:21.017Z,101914.78
2023-01-23T14:48:54.719Z,101919.03
2023-01-23T14:51:27.916Z,101911.59
2023-01-23T14:53:59.304Z,101916.16
2023-01-23T14:56:33.106Z,101910.56
2023-01-23T14:59:04.813Z,101913.88
2023-01-23T15:01:35.771Z,101920.31
2023-01-23T15:04:07.124Z,101916.75
2023-01-23T15:06:37.520Z,101911.16
2023-01-23T15:09:15.612Z,101917.47
2023-01-23T15:11:45.221Z,101911.53
2023-01-23T15:14:36.591Z,101920.31
2023-01-23T15:17:07.780Z,101917.69
2023-01-23T15:19:38.837Z,101924.03
2023-01-23T15:22:20.329Z,101923.94
2023-01-23T15:24:49.261Z,101924.97
2023-01-23T15:27:32.329Z,101922.47
2023-01-23T15:30:48.570Z,101926.72
2023-01-23T15:33:28.572Z,101923.38
2023-01-23T15:36:06.786Z,101935.97
2023-01-23T15:38:37.260Z,101943.03
2023-01-23T15:41:11.358Z,101941.13
2023-01-23T15:43:40.035Z,101937.56
2023-01-23T15:46:12.010Z,101935.19
2023-01-23T15:48:40.655Z,101927.34
2023-01-23T15:51:12.631Z,101917.13
2023-01-23T15:53:42.544Z,101918.03
2023-01-23T15:56:29.394Z,101917.91
2023-01-23T15:58:59.144Z,101916.84
2023-01-23T16:01:28.007Z,101922.91
2023-01-23T16:03:56.561Z,101914.13
2023-01-23T16:06:26.396Z,101915.16
2023-01-23T16:09:05.105Z,101909.03
2023-01-23T16:11:38.655Z,101913.94
2023-01-23T16:14:07.452Z,101915.66
2023-01-23T16:16:35.874Z,101911.72
2023-01-23T16:19:04.547Z,101904.47
2023-01-23T16:21:33.310Z,101902.78
2023-01-23T16:24:05.273Z,101909.75
2023-01-23T16:26:35.204Z,101899.81
2023-01-23T16:29:14.133Z,101900.16
2023-01-23T16:31:42.931Z,101896.63
2023-01-23T16:34:11.168Z,101896.63
2023-01-23T16:36:39.519Z,101888.06
2023-01-23T16:39:16.864Z,101886.13
2023-01-23T16:41:45.604Z,101892.44
2023-01-23T16:44:18.442Z,101880.25
2023-01-23T16:46:47.403Z,101882.88
2023-01-23T16:49:17.390Z,101883.75
2023-01-23T16:51:55.715Z,101884.00
2023-01-23T16:54:26.388Z,101884.78
2023-01-23T16:56:57.128Z,101897.16
2023-01-23T16:59:34.366Z,101892.69
2023-01-23T17:02:13.779Z,101889.34
2023-01-23T17:04:42.372Z,101895.13
2023-01-23T17:07:15.360Z,101901.00
2023-01-23T17:09:45.173Z,101908.59
2023-01-23T17:12:17.998Z,101905.50
2023-01-23T17:14:49.000Z,101914.66
2023-01-23T17:17:26.152Z,101909.53
2023-01-23T17:19:55.190Z,101918.97
2023-01-23T17:22:27.720Z,101924.91
2023-01-23T17:24:57.427Z,101923.19
2023-01-23T17:27:25.807Z,101925.13
2023-01-23T17:29:54.337Z,101924.00
2023-01-23T17:32:30.456Z,101932.63
2023-01-23T17:35:01.716Z,101931.84
2023-01-23T17:37:31.902Z,101931.34
2023-01-23T17:40:02.082Z,101935.53
2023-01-23T17:42:30.927Z,101935.47
2023-01-23T17:44:59.592Z,101934.00
2023-01-23T17:47:28.225Z,101932.22
2023-01-23T17:49:57.262Z,101927.81
2023-01-23T17:52:27.089Z,101920.94
2023-01-23T17:54:55.367Z,101924.53
2023-01-23T17:57:25.281Z,101921.06
2023-01-23T17:59:56.378Z,101921.03
2023-01-23T18:02:30.092Z,101917.50
2023-01-23T18:04:58.632Z,101913.88
2023-01-23T18:07:27.425Z,101919.75
2023-01-23T18:09:56.305Z,101920.69
2023-01-23T18:12:37.486Z,101919.03
2023-01-23T18:15:17.727Z,101905.44
2023-01-23T18:17:55.986Z,101906.38
2023-01-23T18:20:25.888Z,101909.63
2023-01-23T18:22:55.745Z,101916.00
2023-01-23T18:25:27.256Z,101914.09
2023-01-23T18:28:01.634Z,101912.50
2023-01-23T18:30:45.495Z,101920.16
2023-01-23T18:33:36.227Z,101914.84
2023-01-23T18:36:33.460Z,101906.25
2023-01-23T18:39:26.703Z,101907.09
2023-01-23T18:42:15.832Z,101900.47
2023-01-23T18:44:53.647Z,101904.63
2023-01-23T18:47:22.422Z,101909.88
2023-01-23T18:49:51.447Z,101900.47
2023-01-23T18:52:26.258Z,101903.69
2023-01-23T18:55:03.752Z,101910.56
2023-01-23T18:57:54.271Z,101909.94
2023-01-23T19:00:35.536Z,101914.16
2023-01-23T19:03:13.574Z,101917.69
2023-01-23T19:05:43.135Z,101912.81
2023-01-23T19:08:27.947Z,101911.84
2023-01-23T19:11:02.039Z,101914.34
2023-01-23T19:13:40.586Z,101918.81
2023-01-23T19:16:16.854Z,101919.41
2023-01-23T19:18:48.648Z,101926.38
2023-01-23T19:21:23.468Z,101922.66
2023-01-23T19:23:59.536Z,101929.63
2023-01-23T19:26:30.809Z,101934.78
2023-01-23T19:29:08.367Z,101938.19
2023-01-23T19:31:45.331Z,101945.28
2023-01-23T19:34:15.985Z,101948.59
2023-01-23T19:36:44.419Z,101958.22
2023-01-23T19:39:12.964Z,101957.63
2023-01-23T19:41:46.773Z,101961.63
2023-01-23T19:44:17.603Z,101960.63
2023-01-23T19:46:47.869Z,101979.59
2023-01-23T19:49:16.644Z,101981.25
2023-01-23T19:51:45.299Z,101986.50
2023-01-23T19:54:16.484Z,101981.13
2023-01-23T19:56:45.264Z,101989.75
2023-01-23T19:59:13.771Z,101991.72
2023-01-23T20:01:46.759Z,101991.63
2023-01-23T20:04:20.537Z,101990.84
2023-01-23T20:06:51.764Z,101984.59
2023-01-23T20:09:20.811Z,101997.13
2023-01-23T20:11:49.600Z,102001.59
2023-01-23T20:14:21.463Z,101991.28
2023-01-23T20:16:49.807Z,101999.50
2023-01-23T20:19:19.997Z,101995.06
2023-01-23T20:21:48.798Z,102008.13
2023-01-23T20:24:17.963Z,101999.59
2023-01-23T20:26:47.675Z,102005.97
2023-01-23T20:29:16.058Z,102006.59
2023-01-23T20:31:46.600Z,102011.19
2023-01-23T20:34:14.915Z,102007.91
2023-01-23T20:36:45.090Z,102007.59
2023-01-23T20:39:14.234Z,102002.78
2023-01-23T20:41:43.130Z,102001.84
2023-01-23T20:44:11.836Z,102000.50
2023-01-23T20:46:40.619Z,102002.28
2023-01-23T20:49:09.196Z,101998.19
2023-01-23T20:51:37.776Z,101998.16
2023-01-23T20:54:08.319Z,102001.34
2023-01-23T20:56:36.848Z,101995.75
2023-01-23T20:59:21.376Z,101997.78
2023-01-23T21:02:07.499Z,101993.16
2023-01-23T21:04:38.376Z,101992.13
2023-01-23T21:07:06.976Z,101993.25
2023-01-23T21:09:36.693Z,101983.38
2023-01-23T21:12:05.780Z,101992.63
2023-01-23T21:14:35.340Z,101984.94
2023-01-23T21:17:05.532Z,101984.38
2023-01-23T21:19:34.891Z,101982.66
2023-01-23T21:22:06.122Z,101997.94
2023-01-23T21:24:37.804Z,102000.34
2023-01-23T21:27:08.005Z,101988.22
2023-01-23T21:29:37.369Z,101989.03
2023-01-23T21:32:05.731Z,101982.09
2023-01-23T21:34:34.506Z,101983.63
2023-01-23T21:37:03.820Z,101979.66
2023-01-23T21:39:32.321Z,101979.50
2023-01-23T21:42:02.240Z,101978.00
2023-01-23T21:44:30.810Z,101982.09
2023-01-23T21:46:59.582Z,101981.81
2023-01-23T21:49:28.296Z,101977.44
2023-01-23T21:51:56.834Z,101983.13
2023-01-23T21:54:26.567Z,101985.72
2023-01-23T21:56:55.546Z,101983.28
2023-01-23T21:59:25.369Z,101990.13
2023-01-23T22:01:52.922Z,101984.72
2023-01-23T22:04:23.077Z,101978.56
2023-01-23T22:06:55.416Z,101979.66
2023-01-23T22:09:26.388Z,101977.28
2023-01-23T22:11:56.085Z,101975.59
2023-01-23T22:14:26.232Z,101978.13
2023-01-23T22:16:54.857Z,101976.44
2023-01-23T22:19:25.574Z,101978.31
2023-01-23T22:21:55.002Z,101972.22
2023-01-23T22:24:23.713Z,101976.44
2023-01-23T22:26:52.281Z,101972.81
2023-01-23T22:29:22.681Z,101978.16
2023-01-23T22:31:52.812Z,101982.31
2023-01-23T22:34:21.627Z,101980.66
2023-01-23T22:36:50.341Z,101979.69
2023-01-23T22:39:19.692Z,101975.50
2023-01-23T22:41:50.057Z,101978.94
2023-01-23T22:44:19.253Z,101979.78
2023-01-23T22:46:47.876Z,101982.41
2023-01-23T22:49:17.702Z,101974.09
2023-01-23T22:51:46.442Z,101977.50
2023-01-23T22:54:15.498Z,101982.44
2023-01-23T22:56:44.458Z,101984.06
2023-01-23T22:59:13.153Z,101985.72
2023-01-23T23:01:41.668Z,101988.34
2023-01-23T23:04:11.082Z,101988.53
2023-01-23T23:06:41.226Z,101984.72
2023-01-23T23:09:10.753Z,101991.81
2023-01-23T23:11:41.515Z,101982.94
2023-01-23T23:14:11.847Z,101983.13
2023-01-23T23:16:41.145Z,101974.78
2023-01-23T23:19:11.136Z,101983.88
2023-01-23T23:21:41.580Z,101986.22
2023-01-23T23:24:13.877Z,101981.00
2023-01-23T23:26:42.718Z,101980.16
2023-01-23T23:29:11.265Z,101979.97
2023-01-23T23:31:40.094Z,101980.19
2023-01-23T23:34:09.146Z,101981.09
2023-01-23T23:36:37.709Z,101978.47
2023-01-23T23:39:07.888Z,101976.06
2023-01-23T23:41:36.287Z,101959.25
2023-01-23T23:44:05.002Z,101971.81
2023-01-23T23:46:33.497Z,101963.72
2023-01-23T23:49:01.802Z,101959.75
2023-01-23T23:51:30.435Z,101964.34
2023-01-23T23:53:58.734Z,101960.94
2023-01-23T23:56:32.256Z,101964.84
2023-01-23T23:59:00.715Z,101964.69
